Time;durP1;ratioP1;P1;durP2;ratioP2;P2;SDS_P1;SDS_P2;PMS_P1;PMS_P2;Temp;Humidity;BMP_temperature;BMP_pressure;BME280_temperature;BME280_humidity;BME280_pressure;Samples;Min_cycle;Max_cycle;Signal;HPM_P1;HPM_P2
2022/07/14 00:00:22;;;;;;;4.50;2.80;;;;;;;15.50;85.62;99788.34;5069388;28;20020;-84
2022/07/14 00:02:48;;;;;;;5.50;3.22;;;;;;;15.64;85.60;99780.38;5068000;28;20397;-84
2022/07/14 00:05:14;;;;;;;5.82;2.50;;;;;;;15.70;85.28;99782.16;5069281;28;20024;-84
2022/07/14 00:07:40;;;;;;;5.03;2.80;;;;;;;15.23;87.01;99785.78;5068550;28;20025;-83
2022/07/14 00:10:05;;;;;;;4.88;3.22;;;;;;;15.52;86.32;99783.66;5067953;28;20528;-84
2022/07/14 00:12:31;;;;;;;6.38;2.70;;;;;;;15.50;86.38;99779.59;5068796;28;20036;-83
2022/07/14 00:14:57;;;;;;;3.92;2.90;;;;;;;15.48;86.54;99776.38;5070962;28;20043;-83
2022/07/14 00:17:22;;;;;;;4.55;2.60;;;;;;;15.49;86.70;99781.44;5066949;28;20025;-84
2022/07/14 00:19:48;;;;;;;6.03;3.33;;;;;;;15.50;86.57;99775.13;5088341;28;20090;-82
2022/07/14 00:22:14;;;;;;;3.95;2.83;;;;;;;15.39;86.95;99767.84;5069657;28;20080;-82
2022/07/14 00:24:40;;;;;;;4.15;2.47;;;;;;;15.61;86.44;99759.63;5066078;28;20032;-82
2022/07/14 00:27:06;;;;;;;5.05;2.72;;;;;;;15.42;86.88;99778.00;5066858;28;20051;-82
2022/07/14 00:29:34;;;;;;;3.97;2.80;;;;;;;15.62;86.55;99766.53;5065173;28;20043;-83
2022/07/14 00:32:00;;;;;;;4.78;2.80;;;;;;;15.52;86.58;99775.72;5065043;28;20044;-83
2022/07/14 00:34:26;;;;;;;5.38;3.00;;;;;;;15.47;86.99;99770.25;5064612;28;20032;-82
2022/07/14 00:36:52;;;;;;;3.20;2.90;;;;;;;15.24;87.68;99760.16;5066850;28;20489;-83
2022/07/14 00:39:17;;;;;;;3.55;2.88;;;;;;;15.14;88.17;99760.59;5070220;28;20375;-84
2022/07/14 00:41:43;;;;;;;9.55;3.00;;;;;;;15.37;87.83;99769.88;5071507;28;20405;-84
2022/07/14 00:44:08;;;;;;;3.78;2.70;;;;;;;15.32;87.94;99769.66;5071728;28;20544;-83
2022/07/14 00:46:37;;;;;;;5.07;2.78;;;;;;;15.44;87.75;99768.03;5068966;28;20032;-82
2022/07/14 00:49:03;;;;;;;5.47;2.70;;;;;;;15.47;87.74;99769.44;5065545;28;20024;-82
2022/07/14 00:51:28;;;;;;;4.78;3.10;;;;;;;15.51;87.31;99760.88;5069455;28;20509;-83
2022/07/14 00:53:57;;;;;;;5.47;2.80;;;;;;;15.46;87.58;99757.25;5063134;28;20025;-85
2022/07/14 00:56:23;;;;;;;4.35;2.58;;;;;;;15.38;87.90;99758.28;5070756;28;20028;-83
2022/07/14 00:58:49;;;;;;;5.63;3.40;;;;;;;15.40;87.92;99761.53;5069776;28;20066;-82
2022/07/14 01:01:15;;;;;;;4.40;2.92;;;;;;;15.39;87.89;99758.06;5070079;28;20031;-82
2022/07/14 01:03:41;;;;;;;6.70;3.05;;;;;;;15.38;88.13;99745.84;5065947;28;20025;-83
2022/07/14 01:06:06;;;;;;;5.18;3.65;;;;;;;15.14;88.99;99744.72;5069213;28;21382;-83
2022/07/14 01:08:32;;;;;;;6.43;3.00;;;;;;;15.14;89.07;99744.72;5067348;28;20036;-83
2022/07/14 01:10:58;;;;;;;5.40;2.90;;;;;;;14.88;90.28;99746.38;5070170;28;20385;-83
2022/07/14 01:13:24;;;;;;;4.65;3.22;;;;;;;15.11;90.18;99745.09;5070366;28;20032;-85
2022/07/14 01:15:50;;;;;;;4.75;2.83;;;;;;;15.19;90.11;99744.91;5069227;28;20086;-82
2022/07/14 01:18:15;;;;;;;3.55;2.50;;;;;;;15.20;90.34;99749.16;5071166;28;20429;-83
2022/07/14 01:20:41;;;;;;;3.63;2.65;;;;;;;15.01;91.24;99747.38;5070775;28;20493;-82
2022/07/14 01:23:07;;;;;;;5.22;2.70;;;;;;;14.83;91.69;99743.53;5101764;28;20070;-82
2022/07/14 01:25:33;;;;;;;3.95;2.72;;;;;;;14.97;91.35;99744.34;5071000;28;20028;-85
2022/07/14 01:27:59;;;;;;;3.80;2.53;;;;;;;14.91;91.59;99751.25;5067002;28;20462;-83
2022/07/14 01:30:25;;;;;;;4.70;2.60;;;;;;;14.97;91.61;99747.81;5070423;28;20035;-82
2022/07/14 01:32:51;;;;;;;4.30;2.25;;;;;;;14.95;91.76;99751.66;5069750;28;20047;-82
2022/07/14 01:35:17;;;;;;;5.22;2.83;;;;;;;15.12;91.04;99749.38;5071123;28;20116;-83
2022/07/14 01:37:43;;;;;;;4.78;3.00;;;;;;;15.31;90.60;99754.81;5068105;28;20059;-83
2022/07/14 01:40:10;;;;;;;8.10;2.50;;;;;;;15.49;89.94;99747.03;5070384;28;20032;-83
2022/07/14 01:42:35;;;;;;;6.85;2.63;;;;;;;15.39;90.21;99757.25;5069858;28;20029;-82
2022/07/14 01:45:03;;;;;;;4.55;2.85;;;;;;;15.31;90.58;99750.38;5070296;28;20032;-82
2022/07/14 01:47:28;;;;;;;5.10;2.63;;;;;;;15.30;90.70;99754.03;5069395;28;20040;-82
2022/07/14 01:49:54;;;;;;;3.00;2.33;;;;;;;15.34;90.95;99754.44;5069183;28;20535;-82
2022/07/14 01:52:20;;;;;;;5.72;2.85;;;;;;;15.16;91.18;99753.25;5070402;28;20033;-83
2022/07/14 01:54:45;;;;;;;4.35;2.70;;;;;;;15.03;92.03;99748.78;5070429;28;20494;-83
2022/07/14 01:57:12;;;;;;;4.05;2.70;;;;;;;15.30;91.36;99745.25;5067696;28;20082;-84
2022/07/14 01:59:40;;;;;;;5.20;2.72;;;;;;;15.12;91.80;99744.09;5068007;28;20094;-82
2022/07/14 02:02:06;;;;;;;2.97;2.47;;;;;;;15.44;90.96;99738.91;5069143;28;20470;-84
2022/07/14 02:04:31;;;;;;;5.57;2.80;;;;;;;15.33;91.66;99744.84;5068951;28;20036;-83
2022/07/14 02:06:57;;;;;;;5.03;2.70;;;;;;;15.13;91.88;99735.13;5069939;28;20033;-83
2022/07/14 02:12:10;;;;;;;7.38;3.00;;;;;;;15.38;91.14;99731.81;5052341;28;20398;-83
2022/07/14 02:12:12;;;;;;;4.95;2.60;;;;;;;15.50;90.77;99727.50;5070277;28;20044;-83
2022/07/14 02:14:37;;;;;;;4.18;2.90;;;;;;;15.60;90.40;99724.41;5069690;28;20029;-83
2022/07/14 02:17:03;;;;;;;4.30;2.60;;;;;;;15.65;90.27;99729.88;5067632;28;20501;-84
2022/07/14 02:19:28;;;;;;;7.70;2.95;;;;;;;15.68;90.14;99736.56;5069125;28;20037;-83
2022/07/14 02:21:55;;;;;;;4.60;2.53;;;;;;;15.68;90.39;99737.41;5068823;28;20024;-83
2022/07/14 02:24:21;;;;;;;3.85;2.75;;;;;;;15.68;90.23;99734.75;5064190;28;20032;-83
2022/07/14 02:26:51;;;;;;;5.07;2.97;;;;;;;15.69;90.13;99752.25;5067798;28;20029;-83
2022/07/14 02:29:18;;;;;;;3.20;2.35;;;;;;;15.65;90.18;99735.19;5068258;28;20044;-82
2022/07/14 02:31:44;;;;;;;5.82;2.65;;;;;;;15.70;90.24;99734.53;5068707;28;20052;-84
2022/07/14 02:34:11;;;;;;;5.20;2.55;;;;;;;15.68;90.38;99747.16;5068702;28;20044;-83
2022/07/14 02:36:39;;;;;;;3.90;2.70;;;;;;;15.71;90.71;99739.63;5072561;28;20028;-84
2022/07/14 02:39:05;;;;;;;4.13;2.50;;;;;;;15.73;90.88;99747.38;5056056;28;20025;-83
2022/07/14 02:41:31;;;;;;;5.68;2.42;;;;;;;15.76;91.25;99751.41;5073397;28;20051;-83
2022/07/14 02:43:57;;;;;;;3.72;3.05;;;;;;;15.64;91.91;99741.50;5072628;28;20036;-84
2022/07/14 02:46:23;;;;;;;5.10;2.90;;;;;;;15.74;91.63;99749.00;5071375;28;20094;-83
2022/07/14 02:48:49;;;;;;;3.95;2.60;;;;;;;15.72;91.51;99740.41;5071287;28;20405;-84
2022/07/14 02:51:15;;;;;;;6.30;2.97;;;;;;;15.67;91.70;99738.44;5073674;28;20029;-83
2022/07/14 02:53:41;;;;;;;2.97;2.40;;;;;;;15.65;91.97;99734.34;5072350;28;20053;-83
2022/07/14 02:56:07;;;;;;;3.78;2.65;;;;;;;15.58;92.13;99731.72;5072785;28;20037;-84
2022/07/14 02:58:33;;;;;;;3.65;2.78;;;;;;;15.59;92.14;99736.00;5070508;28;20032;-83
2022/07/14 03:00:59;;;;;;;4.57;2.75;;;;;;;15.57;92.74;99741.53;5067926;28;20039;-84
2022/07/14 03:03:25;;;;;;;5.65;2.60;;;;;;;15.63;92.67;99736.41;5051278;28;20032;-83
2022/07/14 03:05:51;;;;;;;7.15;2.72;;;;;;;15.70;92.79;99739.81;5071675;28;20032;-84
2022/07/14 03:08:17;;;;;;;4.63;2.75;;;;;;;15.71;93.15;99733.50;5073564;28;20032;-84
2022/07/14 03:10:43;;;;;;;4.82;2.40;;;;;;;15.76;93.14;99731.06;5073414;28;20056;-83
2022/07/14 03:13:09;;;;;;;5.95;2.88;;;;;;;15.85;93.37;99729.78;5071882;28;20039;-83
2022/07/14 03:15:36;;;;;;;9.20;3.30;;;;;;;15.95;94.87;99741.78;5071690;28;20036;-84
2022/07/14 03:18:01;;;;;;;6.43;3.60;;;;;;;16.01;96.21;99732.97;5071703;28;20363;-83
2022/07/14 03:20:29;;;;;;;3.85;3.05;;;;;;;16.10;96.57;99742.28;5052268;28;20029;-83
2022/07/14 03:22:54;;;;;;;6.78;3.38;;;;;;;16.10;97.30;99739.63;5063222;28;20051;-83
2022/07/14 03:25:21;;;;;;;4.55;3.13;;;;;;;16.25;97.16;99742.00;5071093;28;20063;-83
2022/07/14 03:27:48;;;;;;;8.82;3.22;;;;;;;16.25;97.69;99738.53;5071327;28;20028;-83
2022/07/14 03:30:14;;;;;;;8.40;3.25;;;;;;;16.25;97.41;99733.22;5071206;28;20047;-84
2022/07/14 03:32:40;;;;;;;3.45;2.92;;;;;;;16.35;97.35;99730.94;5071690;28;20089;-82
2022/07/14 03:35:07;;;;;;;6.68;3.53;;;;;;;16.30;98.51;99722.78;5073387;28;20029;-83
2022/07/14 03:37:36;;;;;;;5.13;4.13;;;;;;;16.39;98.95;99726.81;5071075;28;20037;-83
2022/07/14 03:40:04;;;;;;;6.35;3.35;;;;;;;16.41;99.40;99722.09;5072537;28;20485;-83
2022/07/14 03:42:30;;;;;;;6.63;4.05;;;;;;;16.46;99.65;99712.69;5072928;28;20021;-83
2022/07/14 03:44:55;;;;;;;5.88;3.65;;;;;;;16.51;99.80;99711.00;5073522;28;20043;-83
2022/07/14 03:47:22;;;;;;;6.38;4.07;;;;;;;16.51;100.00;99732.22;5072047;28;20036;-82
2022/07/14 03:49:48;;;;;;;8.45;4.03;;;;;;;16.44;100.00;99714.75;5073370;28;20112;-83
2022/07/14 03:52:14;;;;;;;8.13;4.10;;;;;;;16.35;100.00;99712.38;5071336;28;20467;-82
2022/07/14 03:54:46;;;;;;;6.78;4.53;;;;;;;16.41;100.00;99724.75;5069517;28;20090;-82
2022/07/14 03:57:12;;;;;;;5.85;4.20;;;;;;;16.62;100.00;99722.75;5067844;28;20050;-83
2022/07/14 03:59:42;;;;;;;7.05;4.68;;;;;;;16.63;100.00;99713.75;5070419;28;20063;-83
2022/07/14 04:02:09;;;;;;;6.60;4.45;;;;;;;16.63;100.00;99713.75;5072331;28;20070;-83
2022/07/14 04:04:41;;;;;;;5.53;3.80;;;;;;;16.77;100.00;99716.31;5071140;28;20048;-82
2022/07/14 04:07:07;;;;;;;4.35;3.40;;;;;;;16.82;100.00;99711.16;5071846;28;20060;-83
2022/07/14 04:09:34;;;;;;;6.60;3.67;;;;;;;16.84;100.00;99722.34;5071886;28;20028;-83
2022/07/14 04:12:00;;;;;;;7.18;3.85;;;;;;;16.98;99.42;99726.53;5067834;28;20020;-83
2022/07/14 04:14:26;;;;;;;4.32;3.60;;;;;;;17.05;98.82;99721.16;5071141;28;20033;-83
2022/07/14 04:16:54;;;;;;;6.65;3.80;;;;;;;16.91;97.49;99715.16;5068165;28;20028;-82
2022/07/14 04:19:20;;;;;;;6.05;3.38;;;;;;;16.55;97.40;99714.06;5069838;28;20035;-82
2022/07/14 04:21:46;;;;;;;8.70;3.78;;;;;;;17.01;97.04;99717.31;5068801;28;20025;-83
2022/07/14 04:24:12;;;;;;;4.97;3.20;;;;;;;17.13;95.98;99720.06;5053643;28;20486;-83
2022/07/14 04:26:39;;;;;;;6.05;3.35;;;;;;;17.09;96.08;99726.81;5070642;28;20040;-83
2022/07/14 04:29:05;;;;;;;7.78;3.15;;;;;;;17.21;94.97;99722.41;5070251;28;20068;-82
2022/07/14 04:31:31;;;;;;;4.75;2.90;;;;;;;17.11;94.05;99727.41;5069145;28;20036;-84
2022/07/14 04:33:57;;;;;;;6.32;3.45;;;;;;;17.03;93.69;99727.69;5070684;28;20024;-83
2022/07/14 04:36:22;;;;;;;6.03;2.75;;;;;;;17.24;93.00;99723.81;5069446;28;20028;-83
2022/07/14 04:38:48;;;;;;;3.40;2.63;;;;;;;17.09;93.42;99716.19;5069576;28;20032;-82
2022/07/14 04:41:14;;;;;;;4.75;2.60;;;;;;;17.16;93.24;99711.66;5071104;28;20104;-82
2022/07/14 04:43:39;;;;;;;3.47;2.63;;;;;;;17.13;93.18;99707.59;5068842;28;20116;-83
2022/07/14 04:46:05;;;;;;;5.97;2.95;;;;;;;16.83;94.41;99702.16;5069426;28;20031;-84
2022/07/14 04:52:01;;;;;;;8.02;3.05;;;;;;;16.99;93.35;99703.44;5053383;28;20033;-84
2022/07/14 04:54:01;;;;;;;4.75;2.90;;;;;;;16.89;93.92;99701.28;5067765;28;20035;-84
2022/07/14 04:56:27;;;;;;;9.05;2.60;;;;;;;17.06;93.19;99698.06;5067964;28;20474;-83
2022/07/14 04:58:52;;;;;;;3.90;2.47;;;;;;;17.26;92.65;99693.34;5069262;28;20429;-84
2022/07/14 05:01:18;;;;;;;5.65;2.55;;;;;;;17.25;91.98;99696.25;5048533;28;20032;-83
2022/07/14 05:03:44;;;;;;;5.80;2.22;;;;;;;17.34;91.54;99691.44;5069391;28;20028;-83
2022/07/14 05:06:11;;;;;;;5.43;2.70;;;;;;;17.18;91.49;99696.31;5071093;28;20474;-83
2022/07/14 05:08:36;;;;;;;5.78;2.72;;;;;;;17.57;90.57;99696.03;5070723;28;20355;-84
2022/07/14 05:11:06;;;;;;;3.17;2.55;;;;;;;17.51;90.90;99697.75;5068068;28;20170;-83
2022/07/14 05:13:32;;;;;;;4.30;2.60;;;;;;;17.30;91.89;99695.59;5069655;28;20081;-83
2022/07/14 05:15:57;;;;;;;5.05;2.35;;;;;;;17.65;90.98;99698.38;5067776;28;20036;-83
2022/07/14 05:18:23;;;;;;;7.22;2.75;;;;;;;17.73;91.04;99699.09;5068615;28;21356;-83
2022/07/14 05:20:49;;;;;;;5.90;2.75;;;;;;;17.55;90.97;99698.09;5066335;28;20394;-84
2022/07/14 05:23:14;;;;;;;3.20;2.55;;;;;;;17.47;91.06;99699.22;5070182;28;20078;-84
2022/07/14 05:25:40;;;;;;;4.57;2.72;;;;;;;17.30;92.13;99698.25;5067870;28;20086;-83
2022/07/14 05:28:06;;;;;;;5.05;2.63;;;;;;;17.53;91.92;99700.19;5052835;28;20025;-82
2022/07/14 05:30:31;;;;;;;8.35;3.00;;;;;;;17.39;93.11;99691.56;5070954;28;20078;-81
2022/07/14 05:32:58;;;;;;;6.30;3.08;;;;;;;17.56;93.25;99687.28;5071126;28;20040;-81
2022/07/14 05:35:23;;;;;;;5.38;3.25;;;;;;;17.41;93.44;99687.69;5070901;28;20029;-82
2022/07/14 05:37:49;;;;;;;10.85;3.63;;;;;;;16.87;95.32;99699.88;5069427;28;20040;-82
2022/07/14 05:40:14;;;;;;;4.47;2.78;;;;;;;16.47;96.78;99695.75;5069675;28;20039;-82
2022/07/14 05:42:41;;;;;;;11.80;3.67;;;;;;;16.78;96.00;99694.06;5070229;28;20021;-82
2022/07/14 05:45:07;;;;;;;7.25;3.67;;;;;;;16.63;97.11;99703.16;5070580;28;20021;-83
2022/07/14 05:47:36;;;;;;;7.38;3.50;;;;;;;16.63;96.84;99703.16;5070537;28;20044;-83
2022/07/14 05:50:02;;;;;;;5.38;3.63;;;;;;;17.05;96.15;99688.50;5060036;28;21025;-82
2022/07/14 05:52:30;;;;;;;5.05;3.60;;;;;;;17.41;95.24;99693.00;5067043;28;20028;-81
2022/07/14 05:55:00;;;;;;;9.60;3.97;;;;;;;17.19;96.37;99697.94;5065713;28;20031;-83
2022/07/14 05:57:26;;;;;;;9.93;4.35;;;;;;;16.90;97.42;99702.09;5069004;28;20025;-82
2022/07/14 05:59:52;;;;;;;10.63;4.63;;;;;;;17.08;97.24;99703.97;5063328;28;20029;-82
2022/07/14 06:02:18;;;;;;;7.40;4.30;;;;;;;16.92;98.13;99708.81;5058103;28;20021;-83
2022/07/14 06:04:43;;;;;;;7.47;3.85;;;;;;;16.86;98.32;99712.31;5099897;28;20032;-82
2022/07/14 06:07:09;;;;;;;10.98;4.47;;;;;;;17.28;97.04;99712.50;5069258;28;20047;-83
2022/07/14 06:09:37;;;;;;;6.53;4.13;;;;;;;17.21;97.37;99713.63;5072490;28;20060;-84
2022/07/14 06:12:07;;;;;;;8.45;4.53;;;;;;;17.16;98.09;99716.13;5069581;28;20028;-83
2022/07/14 06:14:33;;;;;;;9.40;4.30;;;;;;;17.56;97.17;99721.78;5072585;28;20406;-85
2022/07/14 06:16:58;;;;;;;11.73;5.22;;;;;;;17.49;97.30;99714.94;5070886;28;20036;-85
2022/07/14 06:19:24;;;;;;;6.50;4.43;;;;;;;17.42;97.87;99715.00;5070094;28;20035;-86
2022/07/14 06:21:49;;;;;;;9.95;4.35;;;;;;;17.69;96.97;99727.97;5073350;28;20467;-85
2022/07/14 06:24:15;;;;;;;9.15;4.93;;;;;;;17.74;96.32;99728.09;5071044;28;20402;-84
2022/07/14 06:26:42;;;;;;;9.15;4.75;;;;;;;17.35;97.04;99716.94;5073197;28;20025;-85
2022/07/14 06:29:08;;;;;;;11.18;5.10;;;;;;;17.29;97.60;99721.28;5072563;28;20490;-84
2022/07/14 06:31:35;;;;;;;9.20;5.20;;;;;;;17.26;97.47;99727.03;5068101;28;20074;-86
2022/07/14 06:34:02;;;;;;;7.57;4.72;;;;;;;17.09;99.04;99710.88;5053445;28;20122;-85
2022/07/14 06:36:31;;;;;;;10.30;5.75;;;;;;;17.47;97.98;99717.78;5073174;28;20107;-85
2022/07/14 06:38:58;;;;;;;8.02;5.22;;;;;;;17.37;98.47;99706.91;5071448;28;20398;-84
2022/07/14 06:41:23;;;;;;;9.18;6.07;;;;;;;17.71;97.73;99717.94;5074101;28;20399;-85
2022/07/14 06:43:49;;;;;;;9.38;5.78;;;;;;;17.38;98.38;99711.19;5067391;28;20059;-86
2022/07/14 06:46:16;;;;;;;10.02;5.68;;;;;;;17.36;98.87;99710.59;5073084;28;20078;-84
2022/07/14 06:48:42;;;;;;;8.63;5.55;;;;;;;17.44;98.91;99715.59;5064741;28;20029;-86
2022/07/14 06:51:08;;;;;;;9.77;6.25;;;;;;;17.24;99.81;99724.59;5068694;28;20033;-85
2022/07/14 06:53:33;;;;;;;8.45;5.05;;;;;;;17.54;99.53;99718.53;5067499;28;20471;-85
2022/07/14 06:55:59;;;;;;;15.77;5.97;;;;;;;17.65;99.46;99719.63;5068402;28;20036;-85
2022/07/14 06:58:25;;;;;;;9.45;5.25;;;;;;;17.63;99.70;99720.88;5074813;28;20098;-87
2022/07/14 07:00:50;;;;;;;8.57;5.38;;;;;;;17.73;98.60;99721.16;5072240;28;20031;-86
2022/07/14 07:03:16;;;;;;;13.38;5.50;;;;;;;17.47;99.26;99727.63;5075519;28;20081;-87
2022/07/14 07:08:28;;;;;;;9.80;6.45;;;;;;;17.55;99.76;99736.09;5073438;28;20111;-87
2022/07/14 07:10:58;;;;;;;15.40;6.05;;;;;;;17.53;99.75;99738.16;5071681;28;20032;-86
2022/07/14 07:13:26;;;;;;;8.20;5.47;;;;;;;17.50;100.00;99745.75;5052928;28;20137;-87
2022/07/14 07:15:52;;;;;;;10.73;5.78;;;;;;;17.93;98.63;99742.13;5072084;28;20641;-88
2022/07/14 07:18:18;;;;;;;12.23;5.53;;;;;;;17.81;96.76;99750.03;5074125;28;20470;-87
2022/07/14 07:20:50;;;;;;;9.65;4.90;;;;;;;18.13;96.25;99747.19;5057260;28;20037;-88
2022/07/14 07:23:15;;;;;;;11.10;5.32;;;;;;;18.23;95.96;99733.34;5076722;28;20017;-88
2022/07/14 07:25:41;;;;;;;9.75;4.95;;;;;;;18.26;95.69;99732.06;5070942;28;20036;-84
2022/07/14 07:28:07;;;;;;;9.50;5.13;;;;;;;18.31;95.85;99750.81;5056616;28;20028;-84
2022/07/14 07:30:32;;;;;;;9.07;4.95;;;;;;;18.70;94.17;99737.09;5067943;28;20040;-85
2022/07/14 07:32:58;;;;;;;13.82;5.15;;;;;;;18.73;93.52;99735.84;5069851;28;20210;-84
2022/07/14 07:35:24;;;;;;;8.90;4.75;;;;;;;18.73;93.03;99749.13;5073118;28;20107;-84
2022/07/14 07:37:50;;;;;;;5.90;4.57;;;;;;;19.25;92.05;99756.41;5070437;28;20041;-86
2022/07/14 07:40:16;;;;;;;8.93;4.65;;;;;;;19.70;90.67;99758.34;5071029;28;20071;-85
2022/07/14 07:42:42;;;;;;;8.02;4.13;;;;;;;19.84;89.11;99753.53;5072102;28;20029;-85
2022/07/14 07:45:08;;;;;;;12.95;4.68;;;;;;;20.28;87.84;99754.88;5068713;28;20136;-84
2022/07/14 07:47:34;;;;;;;9.98;4.22;;;;;;;20.70;86.67;99756.31;5059401;28;20054;-84
2022/07/14 07:50:00;;;;;;;12.30;4.78;;;;;;;20.59;87.05;99762.56;5064169;28;20028;-86
2022/07/14 07:52:25;;;;;;;6.70;4.15;;;;;;;20.52;87.22;99757.38;5065026;28;20344;-84
2022/07/14 07:54:51;;;;;;;10.35;4.57;;;;;;;21.02;84.68;99760.25;5071290;28;20029;-85
2022/07/14 07:57:17;;;;;;;8.43;3.63;;;;;;;21.51;83.15;99751.53;5072008;28;20386;-86
2022/07/14 07:59:43;;;;;;;9.25;3.75;;;;;;;21.54;82.71;99751.84;5054681;28;20107;-86
2022/07/14 08:02:08;;;;;;;10.63;3.90;;;;;;;20.86;81.28;99764.56;5069707;28;20174;-87
2022/07/14 08:04:34;;;;;;;7.40;4.03;;;;;;;19.69;85.38;99758.59;5072502;28;20069;-85
2022/07/14 08:07:00;;;;;;;8.50;4.00;;;;;;;19.41;87.18;99770.81;5070840;28;20111;-86
2022/07/14 08:09:25;;;;;;;7.28;3.95;;;;;;;19.85;86.10;99762.34;5070228;28;20024;-85
2022/07/14 08:11:51;;;;;;;8.57;4.13;;;;;;;19.15;87.57;99767.63;5070596;28;20032;-85
2022/07/14 08:17:01;;;;;;;6.40;4.25;;;;;;;19.65;86.47;99782.22;5070337;28;20070;-87
2022/07/14 08:19:27;;;;;;;8.10;4.10;;;;;;;19.35;87.38;99777.09;5072260;28;20024;-87
2022/07/14 08:21:54;;;;;;;5.70;4.00;;;;;;;19.55;87.24;99772.19;5070788;28;20032;-85
2022/07/14 08:24:20;;;;;;;9.45;4.35;;;;;;;19.39;87.63;99778.25;5070614;28;20064;-87
2022/07/14 08:26:46;;;;;;;8.80;4.57;;;;;;;18.96;89.04;99775.72;5051595;28;20125;-86
2022/07/14 08:29:13;;;;;;;6.57;5.18;;;;;;;18.85;90.01;99768.53;5070895;28;20073;-87
2022/07/14 08:31:42;;;;;;;8.18;4.72;;;;;;;18.87;90.75;99771.81;5070427;28;20048;-87
2022/07/14 08:34:08;;;;;;;12.23;5.20;;;;;;;19.00;90.92;99775.28;5068411;28;20033;-86
2022/07/14 08:36:33;;;;;;;10.45;5.65;;;;;;;18.71;90.41;99767.97;5072030;28;20028;-87
2022/07/14 08:39:01;;;;;;;10.05;5.30;;;;;;;19.11;89.56;99761.16;5071605;28;20028;-86
2022/07/14 08:41:28;;;;;;;10.93;5.13;;;;;;;19.45;88.71;99763.97;5070909;28;20028;-85
2022/07/14 08:43:57;;;;;;;9.18;4.65;;;;;;;19.14;85.43;99771.34;5069350;28;20031;-85
2022/07/14 08:46:23;;;;;;;8.55;4.25;;;;;;;19.39;84.37;99764.94;5069844;28;20536;-86
2022/07/14 08:48:51;;;;;;;8.63;4.22;;;;;;;20.18;83.51;99762.69;5065449;28;20047;-82
2022/07/14 08:51:17;;;;;;;6.05;4.00;;;;;;;20.59;81.24;99763.34;5064489;28;20038;-81
2022/07/14 08:53:44;;;;;;;9.70;4.10;;;;;;;20.92;79.92;99759.06;5065227;28;20024;-83
2022/07/14 08:56:11;;;;;;;6.32;3.63;;;;;;;20.94;79.53;99756.97;5069797;28;20119;-83
2022/07/14 08:58:40;;;;;;;8.70;3.42;;;;;;;21.11;78.90;99772.13;5069283;28;20094;-83
2022/07/14 09:01:09;;;;;;;9.25;3.90;;;;;;;20.83;78.05;99763.19;5067155;28;20028;-83
2022/07/14 09:03:34;;;;;;;10.07;3.50;;;;;;;21.21;77.82;99766.91;5048677;28;20029;-83
2022/07/14 09:06:00;;;;;;;10.68;3.95;;;;;;;21.06;77.51;99774.75;5065795;28;20024;-82
2022/07/14 09:08:26;;;;;;;9.23;3.72;;;;;;;20.82;77.68;99764.25;5067202;28;20028;-83
2022/07/14 09:10:51;;;;;;;9.00;3.85;;;;;;;20.67;76.18;99778.16;5069699;28;20055;-82
2022/07/14 09:13:20;;;;;;;14.15;4.22;;;;;;;20.88;76.27;99765.97;5070039;28;20025;-82
2022/07/14 09:15:47;;;;;;;10.77;3.90;;;;;;;20.81;76.62;99765.31;5051230;28;20482;-82
2022/07/14 09:18:27;;;;;;;9.32;4.18;;;;;;;20.62;76.07;99772.75;5071244;28;20374;-81
2022/07/14 09:20:55;;;;;;;9.13;3.53;;;;;;;20.16;76.89;99759.47;5070594;28;20410;-82
2022/07/14 09:23:30;;;;;;;6.03;3.35;;;;;;;20.33;76.77;99767.47;5068890;28;20479;-82
2022/07/14 09:26:14;;;;;;;9.23;3.40;;;;;;;20.69;76.01;99768.84;5064697;28;20119;-82
2022/07/14 09:28:41;;;;;;;7.30;3.50;;;;;;;21.06;74.21;99788.09;5069800;28;20166;-82
2022/07/14 09:31:22;;;;;;;11.13;3.38;;;;;;;20.33;75.49;99788.78;5067233;28;20045;-82
2022/07/14 09:33:52;;;;;;;9.00;3.33;;;;;;;19.80;76.13;99792.38;5067768;28;20025;-82
2022/07/14 09:36:30;;;;;;;6.65;3.38;;;;;;;20.22;75.89;99806.47;5069293;28;20378;-82
2022/07/14 09:39:12;;;;;;;6.75;3.10;;;;;;;20.18;75.12;99789.34;5066458;28;20119;-82
2022/07/14 09:41:53;;;;;;;6.72;3.70;;;;;;;20.75;72.78;99812.44;5066620;28;20032;-82
2022/07/14 09:44:20;;;;;;;5.45;3.17;;;;;;;21.02;70.21;99793.09;5062417;28;20047;-82
2022/07/14 09:46:57;;;;;;;7.15;3.08;;;;;;;21.14;69.30;99790.31;5064990;28;20031;-83
2022/07/14 09:49:28;;;;;;;4.03;2.55;;;;;;;20.24;67.52;99804.38;5067630;28;20032;-82
2022/07/14 09:51:56;;;;;;;3.92;2.38;;;;;;;20.50;67.19;99818.94;5066494;28;20036;-81
2022/07/14 09:54:37;;;;;;;2.95;2.35;;;;;;;20.93;65.83;99816.72;5068619;28;20028;-81
2022/07/14 09:57:09;;;;;;;4.57;2.42;;;;;;;21.27;65.08;99815.84;5064639;28;20178;-83
2022/07/14 09:59:54;;;;;;;5.88;2.70;;;;;;;21.04;65.86;99814.22;5063947;28;20032;-82
2022/07/14 10:02:24;;;;;;;5.05;2.90;;;;;;;21.44;65.72;99820.34;5079389;28;20062;-86
2022/07/14 10:04:51;;;;;;;6.95;2.85;;;;;;;21.41;66.40;99826.97;5069768;28;20478;-83
2022/07/14 10:07:18;;;;;;;5.10;2.83;;;;;;;21.49;66.05;99831.09;5064345;28;20437;-85
2022/07/14 10:09:54;;;;;;;7.63;2.95;;;;;;;22.17;64.97;99825.47;5068922;28;20021;-84
2022/07/14 10:12:21;;;;;;;5.20;2.78;;;;;;;21.58;66.68;99824.28;5063844;28;20044;-86
2022/07/14 10:14:49;;;;;;;4.97;2.97;;;;;;;21.73;66.23;99823.69;5064604;28;20035;-82
2022/07/14 10:17:16;;;;;;;4.70;2.90;;;;;;;22.07;65.58;99831.53;5068240;28;20035;-86
2022/07/14 10:19:44;;;;;;;7.15;2.97;;;;;;;22.80;64.79;99826.84;5070134;28;20029;-83
2022/07/14 10:22:10;;;;;;;3.67;2.83;;;;;;;22.20;64.63;99822.31;5070170;28;20466;-84
2022/07/14 10:24:36;;;;;;;4.47;2.80;;;;;;;21.66;64.69;99821.19;5064070;28;20033;-85
2022/07/14 10:27:05;;;;;;;4.13;2.45;;;;;;;22.94;63.35;99824.53;5067363;28;20020;-86
2022/07/14 10:29:31;;;;;;;4.30;2.70;;;;;;;23.51;62.20;99824.88;5069855;28;20485;-84
2022/07/14 10:32:10;;;;;;;5.80;2.72;;;;;;;23.67;61.57;99831.88;5067811;28;20083;-86
2022/07/14 10:34:45;;;;;;;6.47;2.63;;;;;;;23.32;61.26;99832.53;5050240;28;20037;-84
2022/07/14 10:37:21;;;;;;;3.70;3.10;;;;;;;23.38;61.29;99828.81;5069483;28;20493;-85
2022/07/14 10:40:20;;;;;;;5.32;2.80;;;;;;;22.50;63.22;99833.56;5052410;28;20036;-85
2022/07/14 10:43:16;;;;;;;5.22;2.97;;;;;;;23.15;62.26;99822.78;5099970;28;20029;-85
2022/07/14 10:45:50;;;;;;;4.43;2.90;;;;;;;23.08;62.50;99830.25;5061533;28;20063;-82
2022/07/14 10:48:30;;;;;;;4.45;2.65;;;;;;;22.65;63.33;99817.66;5064506;28;20021;-84
2022/07/14 10:51:14;;;;;;;13.55;3.63;;;;;;;22.39;63.69;99846.81;5067127;28;20028;-86
2022/07/14 10:54:06;;;;;;;5.90;3.42;;;;;;;23.09;63.76;99831.84;5047756;28;20032;-82
2022/07/14 10:56:32;;;;;;;3.92;2.92;;;;;;;23.62;62.15;99834.56;5103170;28;20024;-84
2022/07/14 10:59:25;;;;;;;5.88;2.95;;;;;;;24.03;61.73;99823.19;5072664;28;20055;-82
2022/07/14 11:02:16;;;;;;;4.18;2.90;;;;;;;23.98;60.76;99825.84;5070096;28;20395;-83
2022/07/14 11:04:58;;;;;;;6.40;2.95;;;;;;;24.41;60.81;99822.16;5070956;28;20119;-82
2022/07/14 11:07:44;;;;;;;12.90;3.17;;;;;;;23.72;60.00;99822.28;5073359;28;20040;-83
2022/07/14 11:10:20;;;;;;;3.55;2.75;;;;;;;23.16;61.61;99810.22;5071952;28;20020;-82
2022/07/14 11:13:04;;;;;;;5.80;2.90;;;;;;;22.44;62.47;99835.34;5073428;28;20844;-84
2022/07/14 11:15:57;;;;;;;6.25;2.63;;;;;;;22.33;61.83;99831.78;5072329;28;20029;-83
2022/07/14 11:18:26;;;;;;;6.97;2.60;;;;;;;21.62;62.42;99828.06;5070790;28;20128;-84
2022/07/14 11:21:04;;;;;;;2.75;2.53;;;;;;;21.11;61.47;99841.53;5073417;28;20042;-82
2022/07/14 11:23:50;;;;;;;4.18;2.45;;;;;;;21.58;60.83;99836.81;5073064;28;20020;-82
2022/07/14 11:26:42;;;;;;;3.08;2.30;;;;;;;22.72;60.71;99811.25;5068227;28;20044;-83
2022/07/14 11:29:09;;;;;;;4.28;2.50;;;;;;;23.05;60.44;99818.16;5071423;28;20413;-82
2022/07/14 11:31:46;;;;;;;8.00;2.45;;;;;;;23.45;58.84;99813.34;5072926;28;20421;-83
2022/07/14 11:37:08;;;;;;;3.95;2.30;;;;;;;23.57;58.79;99814.97;5072245;28;20028;-83
2022/07/14 11:39:39;;;;;;;4.65;2.35;;;;;;;22.62;59.89;99820.84;5069471;28;20028;-82
2022/07/14 11:42:11;;;;;;;5.88;2.40;;;;;;;22.32;59.59;99830.16;5070825;28;20024;-83
2022/07/14 11:44:39;;;;;;;4.00;2.47;;;;;;;22.19;60.45;99831.38;5070714;28;20359;-83
2022/07/14 11:47:15;;;;;;;3.55;2.55;;;;;;;22.40;60.64;99835.06;5072755;28;20458;-84